createdAt,value
2019-06-27T00:00:35.033Z,101927.00
2019-06-27T00:03:05.763Z,101922.00
2019-06-27T00:05:36.394Z,101931.00
2019-06-27T00:08:06.827Z,101930.00
2019-06-27T00:10:37.365Z,101934.00
2019-06-27T00:13:07.773Z,101929.00
2019-06-27T00:15:38.440Z,101927.00
2019-06-27T00:18:08.820Z,101926.00
2019-06-27T00:20:40.100Z,101935.00
2019-06-27T00:23:10.759Z,101914.00
2019-06-27T00:25:41.079Z,101912.00
2019-06-27T00:28:11.991Z,101910.00
2019-06-27T00:30:45.280Z,101915.00
2019-06-27T00:33:16.305Z,101918.00
2019-06-27T00:35:47.770Z,101920.00
2019-06-27T00:38:18.972Z,101919.00
2019-06-27T00:40:49.309Z,101919.00
2019-06-27T00:43:20.416Z,101925.00
2019-06-27T00:45:50.769Z,101928.00
2019-06-27T00:48:21.631Z,101921.00
2019-06-27T00:51:11.087Z,101928.00
2019-06-27T00:53:42.046Z,101929.00
2019-06-27T00:56:12.814Z,101923.00
2019-06-27T00:58:43.177Z,101927.00
2019-06-27T01:01:13.577Z,101934.00
2019-06-27T01:03:43.978Z,101918.00
2019-06-27T01:06:14.907Z,101922.00
2019-06-27T01:08:45.277Z,101933.00
2019-06-27T01:11:16.114Z,101932.00
2019-06-27T01:13:46.756Z,101938.00
2019-06-27T01:16:17.493Z,101938.00
2019-06-27T01:18:48.274Z,101932.00
2019-06-27T01:21:18.607Z,101943.00
2019-06-27T01:23:48.942Z,101944.00
2019-06-27T01:26:19.311Z,101934.00
2019-06-27T01:28:50.014Z,101924.00
2019-06-27T01:31:23.131Z,101928.00
2019-06-27T01:33:53.870Z,101933.00
2019-06-27T01:36:24.231Z,101936.00
2019-06-27T01:38:55.160Z,101927.00
2019-06-27T01:41:25.518Z,101932.00
2019-06-27T01:43:55.930Z,101933.00
2019-06-27T01:46:26.268Z,101924.00
2019-06-27T01:48:56.998Z,101934.00
2019-06-27T01:51:27.761Z,101929.00
2019-06-27T01:53:58.112Z,101931.00
2019-06-27T01:56:28.536Z,101929.00
2019-06-27T01:58:59.045Z,101935.00
2019-06-27T02:01:29.680Z,101937.00
2019-06-27T02:04:00.297Z,101948.00
2019-06-27T02:06:31.524Z,101942.00
2019-06-27T02:09:02.232Z,101938.00
2019-06-27T02:11:32.609Z,101934.00
2019-06-27T02:14:03.265Z,101935.00
2019-06-27T02:16:34.409Z,101946.00
2019-06-27T02:19:04.915Z,101945.00
2019-06-27T02:21:35.294Z,101939.00
2019-06-27T02:24:06.071Z,101953.00
2019-06-27T02:26:36.629Z,101947.00
2019-06-27T02:29:07.050Z,101946.00
2019-06-27T02:31:37.714Z,101946.00
2019-06-27T02:34:08.078Z,101952.00
2019-06-27T02:36:38.421Z,101954.00
2019-06-27T02:39:09.139Z,101942.00
2019-06-27T02:41:39.535Z,101936.00
2019-06-27T02:44:09.924Z,101940.00
2019-06-27T02:46:40.907Z,101944.00
2019-06-27T02:49:11.587Z,101939.00
2019-06-27T02:51:41.945Z,101947.00
2019-06-27T02:54:12.321Z,101945.00
2019-06-27T02:56:42.675Z,101943.00
2019-06-27T02:59:13.701Z,101954.00
2019-06-27T03:01:44.872Z,101944.00
2019-06-27T03:04:15.314Z,101954.00
2019-06-27T03:06:45.796Z,101965.00
2019-06-27T03:09:16.598Z,101963.00
2019-06-27T03:11:47.407Z,101946.00
2019-06-27T03:14:18.132Z,101950.00
2019-06-27T03:16:48.518Z,101955.00
2019-06-27T03:19:19.243Z,101955.00
2019-06-27T03:21:49.663Z,101959.00
2019-06-27T03:24:20.150Z,101961.00
2019-06-27T03:26:52.545Z,101968.00
2019-06-27T03:29:24.104Z,101955.00
2019-06-27T03:31:55.573Z,101955.00
2019-06-27T03:34:26.579Z,101966.00
2019-06-27T03:37:04.773Z,101967.00
2019-06-27T03:39:35.532Z,101965.00
2019-06-27T03:42:07.504Z,101969.00
2019-06-27T03:44:38.446Z,101972.00
2019-06-27T03:47:09.851Z,101973.00
2019-06-27T03:49:40.272Z,101973.00
2019-06-27T03:52:11.372Z,101981.00
2019-06-27T03:54:43.237Z,101978.00
2019-06-27T03:57:14.607Z,101984.00
2019-06-27T03:59:44.977Z,101977.00
2019-06-27T04:02:15.318Z,101988.00
2019-06-27T04:04:45.926Z,101985.00
2019-06-27T04:07:16.798Z,101979.00
2019-06-27T04:09:47.290Z,101982.00
2019-06-27T04:12:17.721Z,101981.00
2019-06-27T04:14:48.585Z,101984.00
2019-06-27T04:17:19.058Z,101986.00
2019-06-27T04:19:49.899Z,101988.00
2019-06-27T04:22:20.528Z,101991.00
2019-06-27T04:24:51.397Z,101989.00
2019-06-27T04:27:21.838Z,101992.00
2019-06-27T04:29:52.819Z,101994.00
2019-06-27T04:32:24.159Z,102013.00
2019-06-27T04:34:54.723Z,102006.00
2019-06-27T04:37:25.336Z,102010.00
2019-06-27T04:39:55.914Z,102009.00
2019-06-27T04:42:26.355Z,102012.00
2019-06-27T04:44:57.159Z,102015.00
2019-06-27T04:47:27.941Z,102012.00
2019-06-27T04:49:58.965Z,102023.00
2019-06-27T04:52:29.737Z,102016.00
2019-06-27T04:55:03.546Z,102007.00
2019-06-27T04:57:33.619Z,102010.00
2019-06-27T05:00:04.467Z,102013.00
2019-06-27T05:02:34.974Z,102005.00
2019-06-27T05:05:06.308Z,102013.00
2019-06-27T05:07:36.648Z,102018.00
2019-06-27T05:10:07.488Z,102012.00
2019-06-27T05:12:37.814Z,102015.00
2019-06-27T05:15:08.403Z,102024.00
2019-06-27T05:17:39.126Z,102016.00
2019-06-27T05:20:09.898Z,102014.00
2019-06-27T05:22:40.365Z,102021.00
2019-06-27T05:25:11.017Z,102023.00
2019-06-27T05:27:41.729Z,102023.00
2019-06-27T05:30:13.671Z,102020.00
2019-06-27T05:32:44.824Z,102022.00
2019-06-27T05:35:15.233Z,102032.00
2019-06-27T05:37:45.669Z,102029.00
2019-06-27T05:40:16.279Z,102039.00
2019-06-27T05:42:47.085Z,102036.00
2019-06-27T05:45:17.802Z,102031.00
2019-06-27T05:47:48.227Z,102037.00
2019-06-27T05:50:18.761Z,102043.00
2019-06-27T05:52:49.184Z,102049.00
2019-06-27T05:55:19.639Z,102040.00
2019-06-27T05:57:50.529Z,102034.00
2019-06-27T06:00:28.339Z,102039.00
2019-06-27T06:02:53.398Z,102042.00
2019-06-27T06:05:23.803Z,102037.00
2019-06-27T06:07:54.444Z,102033.00
2019-06-27T06:10:24.812Z,102038.00
2019-06-27T06:12:55.435Z,102050.00
2019-06-27T06:15:25.842Z,102041.00
2019-06-27T06:17:56.188Z,102037.00
2019-06-27T06:20:26.933Z,102039.00
2019-06-27T06:22:57.354Z,102046.00
2019-06-27T06:25:28.367Z,102042.00
2019-06-27T06:27:58.976Z,102046.00
2019-06-27T06:30:43.313Z,102050.00
2019-06-27T06:33:01.527Z,102042.00
2019-06-27T06:35:32.287Z,102051.00
2019-06-27T06:38:02.662Z,102054.00
2019-06-27T06:40:33.140Z,102050.00
2019-06-27T06:43:03.509Z,102054.00
2019-06-27T06:45:34.094Z,102048.00
2019-06-27T06:48:04.462Z,102064.00
2019-06-27T06:50:34.799Z,102044.00
2019-06-27T06:53:05.499Z,102052.00
2019-06-27T06:55:36.132Z,102061.00
2019-06-27T06:58:06.559Z,102055.00
2019-06-27T07:00:36.909Z,102054.00
2019-06-27T07:03:07.510Z,102050.00
2019-06-27T07:05:38.169Z,102056.00
2019-06-27T07:08:08.938Z,102058.00
2019-06-27T07:10:39.285Z,102055.00
2019-06-27T07:13:09.891Z,102065.00
2019-06-27T07:15:40.241Z,102052.00
2019-06-27T07:18:10.621Z,102058.00
2019-06-27T07:20:40.970Z,102058.00
2019-06-27T07:23:11.668Z,102060.00
2019-06-27T07:25:42.154Z,102064.00
2019-06-27T07:28:12.576Z,102057.00
2019-06-27T07:30:43.520Z,102067.00
2019-06-27T07:33:13.867Z,102062.00
2019-06-27T07:35:44.765Z,102053.00
2019-06-27T07:38:15.407Z,102056.00
2019-06-27T07:40:45.742Z,102060.00
2019-06-27T07:43:16.186Z,102052.00
2019-06-27T07:45:47.184Z,102047.00
2019-06-27T07:48:17.670Z,102041.00
2019-06-27T07:50:48.294Z,102039.00
2019-06-27T07:53:18.718Z,102046.00
2019-06-27T07:55:49.063Z,102045.00
2019-06-27T07:58:19.676Z,102054.00
2019-06-27T08:00:50.030Z,102047.00
2019-06-27T08:03:20.795Z,102052.00
2019-06-27T08:05:51.164Z,102046.00
2019-06-27T08:08:21.555Z,102042.00
2019-06-27T08:10:52.211Z,102043.00
2019-06-27T08:13:22.636Z,102044.00
2019-06-27T08:15:53.031Z,102033.00
2019-06-27T08:18:23.705Z,102050.00
2019-06-27T08:20:54.097Z,102045.00
2019-06-27T08:23:40.605Z,102046.00
2019-06-27T08:25:57.407Z,102043.00
2019-06-27T08:28:28.099Z,102046.00
2019-06-27T08:30:58.790Z,102042.00
2019-06-27T08:33:29.802Z,102041.00
2019-06-27T08:36:00.197Z,102044.00
2019-06-27T08:38:30.630Z,102048.00
2019-06-27T08:41:00.964Z,102046.00
2019-06-27T08:43:31.335Z,102050.00
2019-06-27T08:46:01.797Z,102049.00
2019-06-27T08:48:32.144Z,102034.00
2019-06-27T08:51:02.542Z,102030.00
2019-06-27T08:53:32.937Z,102036.00
2019-06-27T08:56:03.811Z,102039.00
2019-06-27T08:58:34.734Z,102039.00
2019-06-27T09:01:05.352Z,102036.00
2019-06-27T09:03:35.841Z,102035.00
2019-06-27T09:06:06.240Z,102040.00
2019-06-27T09:08:38.117Z,102033.00
2019-06-27T09:11:08.508Z,102035.00
2019-06-27T09:13:38.871Z,102024.00
2019-06-27T09:16:09.299Z,102028.00
2019-06-27T09:18:39.726Z,102018.00
2019-06-27T09:21:10.102Z,102014.00
2019-06-27T09:23:40.789Z,102019.00
2019-06-27T09:26:11.152Z,102028.00
2019-06-27T09:28:42.163Z,102011.00
2019-06-27T09:31:12.810Z,102018.00
2019-06-27T09:33:43.483Z,102020.00
2019-06-27T09:36:13.889Z,102023.00
2019-06-27T09:38:44.624Z,102019.00
2019-06-27T09:41:15.642Z,102020.00
2019-06-27T09:43:46.815Z,102023.00
2019-06-27T09:46:17.156Z,102010.00
2019-06-27T09:48:47.766Z,102019.00
2019-06-27T09:51:18.297Z,102007.00
2019-06-27T09:53:48.679Z,102009.00
2019-06-27T09:56:19.439Z,102014.00
2019-06-27T09:58:49.816Z,102017.00
2019-06-27T10:01:20.220Z,102016.00
2019-06-27T10:03:50.917Z,102024.00
2019-06-27T10:06:21.248Z,102021.00
2019-06-27T10:08:51.627Z,102014.00
2019-06-27T10:11:22.004Z,102023.00
2019-06-27T10:13:52.939Z,102015.00
2019-06-27T10:16:23.383Z,102000.00
2019-06-27T10:18:53.888Z,102001.00
2019-06-27T10:21:24.561Z,101999.00
2019-06-27T10:23:54.954Z,102005.00
2019-06-27T10:26:25.371Z,101994.00
2019-06-27T10:28:55.827Z,102009.00
2019-06-27T10:31:26.430Z,102006.00
2019-06-27T10:33:56.845Z,102005.00
2019-06-27T10:36:27.199Z,101983.00
2019-06-27T10:38:57.899Z,101999.00
2019-06-27T10:41:28.244Z,101990.00
2019-06-27T10:43:58.965Z,101991.00
2019-06-27T10:46:29.366Z,101996.00
2019-06-27T10:49:00.207Z,101992.00
2019-06-27T10:51:30.592Z,101993.00
2019-06-27T10:54:01.998Z,101995.00
2019-06-27T10:56:37.400Z,102001.00
2019-06-27T10:59:05.576Z,101991.00
2019-06-27T11:01:35.907Z,101993.00
2019-06-27T11:04:06.296Z,101986.00
2019-06-27T11:06:36.675Z,101986.00
2019-06-27T11:09:07.407Z,101975.00
2019-06-27T11:11:38.403Z,101977.00
2019-06-27T11:14:08.758Z,101978.00
2019-06-27T11:16:39.115Z,101976.00
2019-06-27T11:19:09.460Z,101961.00
2019-06-27T11:21:39.871Z,101966.00
2019-06-27T11:24:10.558Z,101970.00
2019-06-27T11:26:41.524Z,101964.00
2019-06-27T11:29:12.000Z,101974.00
2019-06-27T11:31:42.338Z,101971.00
2019-06-27T11:34:13.097Z,101968.00
2019-06-27T11:36:46.577Z,101951.00
2019-06-27T11:39:16.214Z,101958.00
2019-06-27T11:41:46.894Z,101959.00
2019-06-27T11:44:17.627Z,101961.00
2019-06-27T11:46:48.279Z,101956.00
2019-06-27T11:49:18.946Z,101963.00
2019-06-27T11:51:49.432Z,101960.00
2019-06-27T11:54:20.048Z,101956.00
2019-06-27T11:56:50.437Z,101946.00
2019-06-27T11:59:20.757Z,101942.00
2019-06-27T12:01:51.171Z,101964.00
2019-06-27T12:04:21.912Z,101951.00
2019-06-27T12:06:52.841Z,101952.00
2019-06-27T12:09:23.197Z,101954.00
2019-06-27T12:11:53.545Z,101949.00
2019-06-27T12:14:23.939Z,101948.00
2019-06-27T12:16:54.358Z,101954.00
2019-06-27T12:19:24.749Z,101942.00
2019-06-27T12:21:55.100Z,101946.00
2019-06-27T12:24:25.558Z,101942.00
2019-06-27T12:26:56.008Z,101939.00
2019-06-27T12:29:26.735Z,101938.00
2019-06-27T12:31:57.112Z,101931.00
2019-06-27T12:34:27.567Z,101931.00
2019-06-27T12:36:58.226Z,101928.00
2019-06-27T12:39:29.047Z,101926.00
2019-06-27T12:41:59.732Z,101934.00
2019-06-27T12:44:30.091Z,101923.00
2019-06-27T12:47:00.750Z,101930.00
2019-06-27T12:49:49.776Z,101917.00
2019-06-27T12:52:03.473Z,101924.00
2019-06-27T12:54:33.895Z,101914.00
2019-06-27T12:57:04.401Z,101907.00
2019-06-27T12:59:34.725Z,101911.00
2019-06-27T13:02:05.181Z,101912.00
2019-06-27T13:04:35.790Z,101910.00
2019-06-27T13:07:06.935Z,101903.00
2019-06-27T13:09:37.607Z,101897.00
2019-06-27T13:12:08.244Z,101914.00
2019-06-27T13:14:39.010Z,101910.00
2019-06-27T13:17:09.637Z,101906.00
2019-06-27T13:19:40.274Z,101899.00
2019-06-27T13:22:10.993Z,101894.00
2019-06-27T13:24:41.373Z,101891.00
2019-06-27T13:27:15.771Z,101898.00
2019-06-27T13:29:46.453Z,101918.00
2019-06-27T13:32:16.893Z,101901.00
2019-06-27T13:34:47.289Z,101898.00
2019-06-27T13:37:17.966Z,101900.00
2019-06-27T13:39:48.381Z,101900.00
2019-06-27T13:42:19.334Z,101895.00
2019-06-27T13:44:50.788Z,101894.00
2019-06-27T13:47:21.177Z,101895.00
2019-06-27T13:49:52.461Z,101896.00
2019-06-27T13:52:23.381Z,101898.00
2019-06-27T13:54:53.751Z,101888.00
2019-06-27T13:57:24.415Z,101896.00
2019-06-27T13:59:54.780Z,101890.00
2019-06-27T14:02:25.678Z,101886.00
2019-06-27T14:04:57.799Z,101899.00
2019-06-27T14:07:28.367Z,101892.00
2019-06-27T14:09:59.039Z,101888.00
2019-06-27T14:12:32.100Z,101879.00
2019-06-27T14:15:02.471Z,101886.00
2019-06-27T14:17:33.103Z,101883.00
2019-06-27T14:20:03.820Z,101885.00
2019-06-27T14:22:34.322Z,101887.00
2019-06-27T14:25:04.669Z,101885.00
2019-06-27T14:27:36.080Z,101894.00
2019-06-27T14:30:07.571Z,101896.00
2019-06-27T14:32:37.929Z,101884.00
2019-06-27T14:35:15.974Z,101891.00
2019-06-27T14:37:41.799Z,101887.00
2019-06-27T14:40:14.603Z,101885.00
2019-06-27T14:42:45.395Z,101889.00
2019-06-27T14:45:16.931Z,101887.00
2019-06-27T14:47:47.325Z,101892.00
2019-06-27T14:50:18.029Z,101894.00
2019-06-27T14:52:48.710Z,101887.00
2019-06-27T14:55:19.623Z,101881.00
2019-06-27T14:57:53.567Z,101891.00
2019-06-27T15:00:30.181Z,101877.00
2019-06-27T15:03:11.288Z,101883.00
2019-06-27T15:05:44.475Z,101895.00
2019-06-27T15:08:15.080Z,101893.00
2019-06-27T15:10:45.892Z,101887.00
2019-06-27T15:13:16.499Z,101895.00
2019-06-27T15:15:48.328Z,101888.00
2019-06-27T15:18:21.096Z,101890.00
2019-06-27T15:20:51.569Z,101890.00
2019-06-27T15:23:22.659Z,101893.00
2019-06-27T15:25:53.074Z,101895.00
2019-06-27T15:28:24.109Z,101895.00
2019-06-27T15:30:54.741Z,101891.00
2019-06-27T15:33:25.414Z,101884.00
2019-06-27T15:35:55.869Z,101889.00
2019-06-27T15:38:26.550Z,101886.00
2019-06-27T15:40:57.206Z,101883.00
2019-06-27T15:43:27.637Z,101879.00
2019-06-27T15:46:01.950Z,101886.00
2019-06-27T15:48:32.663Z,101875.00
2019-06-27T15:51:03.012Z,101879.00
2019-06-27T15:53:33.373Z,101878.00
2019-06-27T15:56:03.782Z,101878.00
2019-06-27T15:58:34.118Z,101863.00
2019-06-27T16:01:04.447Z,101862.00
2019-06-27T16:03:35.174Z,101877.00
2019-06-27T16:06:10.160Z,101870.00
2019-06-27T16:08:37.946Z,101880.00
2019-06-27T16:11:08.390Z,101862.00
2019-06-27T16:13:38.756Z,101860.00
2019-06-27T16:16:10.759Z,101862.00
2019-06-27T16:18:42.829Z,101860.00
2019-06-27T16:21:13.512Z,101872.00
2019-06-27T16:23:44.460Z,101871.00
2019-06-27T16:26:15.425Z,101860.00
2019-06-27T16:28:45.895Z,101865.00
2019-06-27T16:31:16.397Z,101856.00
2019-06-27T16:33:46.842Z,101863.00
2019-06-27T16:36:25.605Z,101864.00
2019-06-27T16:38:50.397Z,101854.00
2019-06-27T16:41:21.275Z,101848.00
2019-06-27T16:43:51.782Z,101857.00
2019-06-27T16:46:22.847Z,101856.00
2019-06-27T16:48:53.354Z,101853.00
2019-06-27T16:51:26.321Z,101864.00
2019-06-27T16:53:56.883Z,101857.00
2019-06-27T16:56:27.301Z,101854.00
2019-06-27T16:58:57.845Z,101856.00
2019-06-27T17:01:28.234Z,101860.00
2019-06-27T17:03:58.615Z,101852.00
2019-06-27T17:06:41.415Z,101869.00
2019-06-27T17:09:01.438Z,101860.00
2019-06-27T17:11:31.792Z,101858.00
2019-06-27T17:14:02.229Z,101856.00
2019-06-27T17:16:32.597Z,101861.00
2019-06-27T17:19:03.468Z,101858.00
2019-06-27T17:21:33.978Z,101856.00
2019-06-27T17:24:04.639Z,101854.00
2019-06-27T17:26:34.987Z,101853.00
2019-06-27T17:29:05.771Z,101852.00
2019-06-27T17:31:36.856Z,101847.00
2019-06-27T17:34:07.366Z,101853.00
2019-06-27T17:36:37.977Z,101870.00
2019-06-27T17:39:08.460Z,101861.00
2019-06-27T17:41:38.908Z,101858.00
2019-06-27T17:44:10.117Z,101862.00
2019-06-27T17:46:40.445Z,101871.00
2019-06-27T17:49:11.976Z,101870.00
2019-06-27T17:51:42.635Z,101858.00
2019-06-27T17:54:13.127Z,101870.00
2019-06-27T17:56:44.130Z,101870.00
2019-06-27T17:59:14.536Z,101876.00
2019-06-27T18:01:45.513Z,101872.00
2019-06-27T18:04:16.251Z,101869.00
2019-06-27T18:06:46.605Z,101880.00
2019-06-27T18:09:36.360Z,101879.00
2019-06-27T18:12:07.518Z,101882.00
2019-06-27T18:14:37.967Z,101886.00
2019-06-27T18:17:08.348Z,101888.00
2019-06-27T18:19:38.720Z,101885.00
2019-06-27T18:22:09.506Z,101887.00
2019-06-27T18:24:41.720Z,101885.00
2019-06-27T18:27:12.516Z,101879.00
2019-06-27T18:29:43.149Z,101880.00
2019-06-27T18:32:13.663Z,101889.00
2019-06-27T18:34:44.312Z,101886.00
2019-06-27T18:37:28.782Z,101885.00
2019-06-27T18:39:47.570Z,101881.00
2019-06-27T18:42:17.931Z,101881.00
2019-06-27T18:44:48.403Z,101886.00
2019-06-27T18:47:19.136Z,101883.00
2019-06-27T18:49:49.582Z,101886.00
2019-06-27T18:52:19.964Z,101879.00
2019-06-27T18:54:51.001Z,101880.00
2019-06-27T18:57:21.386Z,101883.00
2019-06-27T18:59:53.828Z,101881.00
2019-06-27T19:02:24.133Z,101882.00
2019-06-27T19:04:54.883Z,101887.00
2019-06-27T19:07:25.278Z,101885.00
2019-06-27T19:09:55.759Z,101878.00
2019-06-27T19:12:26.092Z,101885.00
2019-06-27T19:14:56.438Z,101886.00
2019-06-27T19:17:27.387Z,101892.00
2019-06-27T19:20:07.686Z,101891.00
2019-06-27T19:22:56.050Z,101890.00
2019-06-27T19:25:32.331Z,101892.00
2019-06-27T19:28:03.627Z,101892.00
2019-06-27T19:30:34.629Z,101894.00
2019-06-27T19:33:15.914Z,101896.00
2019-06-27T19:35:54.567Z,101895.00
2019-06-27T19:38:32.441Z,101900.00
2019-06-27T19:41:09.085Z,101902.00
2019-06-27T19:43:43.958Z,101903.00
2019-06-27T19:46:46.255Z,101906.00
2019-06-27T19:49:19.579Z,101906.00
2019-06-27T19:52:49.045Z,101898.00
2019-06-27T19:55:32.331Z,101905.00
2019-06-27T19:58:09.771Z,101901.00
2019-06-27T20:01:25.138Z,101913.00
2019-06-27T20:04:33.983Z,101910.00
2019-06-27T20:07:06.312Z,101907.00
2019-06-27T20:09:41.263Z,101909.00
2019-06-27T20:12:20.621Z,101909.00
2019-06-27T20:14:51.585Z,101906.00
2019-06-27T20:18:17.700Z,101907.00
2019-06-27T20:21:38.805Z,101902.00
2019-06-27T20:24:09.937Z,101906.00
2019-06-27T20:26:40.672Z,101896.00
2019-06-27T20:29:11.698Z,101899.00
2019-06-27T20:31:42.739Z,101907.00
2019-06-27T20:34:13.085Z,101914.00
2019-06-27T20:36:43.894Z,101910.00
2019-06-27T20:39:14.314Z,101914.00
2019-06-27T20:41:44.951Z,101910.00
2019-06-27T20:44:15.336Z,101910.00
2019-06-27T20:46:45.703Z,101918.00
2019-06-27T20:49:16.186Z,101916.00
2019-06-27T20:51:46.831Z,101920.00
2019-06-27T20:54:17.298Z,101921.00
2019-06-27T20:56:48.307Z,101924.00
2019-06-27T20:59:18.996Z,101922.00
2019-06-27T21:01:49.391Z,101928.00
2019-06-27T21:04:19.799Z,101929.00
2019-06-27T21:06:50.405Z,101920.00
2019-06-27T21:09:20.804Z,101922.00
2019-06-27T21:11:51.169Z,101922.00
2019-06-27T21:14:21.819Z,101917.00
2019-06-27T21:16:52.462Z,101929.00
2019-06-27T21:19:22.862Z,101925.00
2019-06-27T21:21:53.603Z,101921.00
2019-06-27T21:24:24.262Z,101921.00
2019-06-27T21:26:55.271Z,101917.00
2019-06-27T21:29:25.654Z,101929.00
2019-06-27T21:31:56.133Z,101930.00
2019-06-27T21:34:26.637Z,101931.00
2019-06-27T21:36:57.013Z,101932.00
2019-06-27T21:39:27.407Z,101927.00
2019-06-27T21:41:58.842Z,101923.00
2019-06-27T21:44:29.711Z,101935.00
2019-06-27T21:47:00.099Z,101941.00
2019-06-27T21:49:31.001Z,101931.00
2019-06-27T21:52:01.470Z,101932.00
2019-06-27T21:54:31.809Z,101929.00
2019-06-27T21:57:02.170Z,101929.00
2019-06-27T21:59:32.768Z,101922.00
2019-06-27T22:02:03.264Z,101920.00
2019-06-27T22:04:36.105Z,101920.00
2019-06-27T22:07:06.479Z,101919.00
2019-06-27T22:09:36.851Z,101924.00
2019-06-27T22:12:07.280Z,101920.00
2019-06-27T22:14:37.661Z,101915.00
2019-06-27T22:17:08.318Z,101911.00
2019-06-27T22:19:38.738Z,101903.00
2019-06-27T22:22:09.460Z,101904.00
2019-06-27T22:24:39.852Z,101902.00
2019-06-27T22:27:10.756Z,101910.00
2019-06-27T22:29:41.167Z,101891.00
2019-06-27T22:32:11.547Z,101895.00
2019-06-27T22:34:42.252Z,101889.00
2019-06-27T22:37:12.985Z,101899.00
2019-06-27T22:40:01.203Z,101890.00
2019-06-27T22:42:49.297Z,101887.00
2019-06-27T22:45:37.188Z,101882.00
2019-06-27T22:48:12.556Z,101886.00
2019-06-27T22:51:08.219Z,101887.00
2019-06-27T22:53:44.279Z,101880.00
2019-06-27T22:56:14.668Z,101871.00
2019-06-27T22:58:46.335Z,101892.00
2019-06-27T23:01:16.839Z,101887.00
2019-06-27T23:03:47.596Z,101887.00
2019-06-27T23:06:18.005Z,101891.00
2019-06-27T23:08:48.656Z,101873.00
2019-06-27T23:11:19.096Z,101883.00
2019-06-27T23:13:49.407Z,101878.00
2019-06-27T23:16:19.787Z,101881.00
2019-06-27T23:18:50.178Z,101879.00
2019-06-27T23:21:20.555Z,101885.00
2019-06-27T23:23:51.395Z,101873.00
2019-06-27T23:26:22.059Z,101870.00
2019-06-27T23:28:52.407Z,101883.00
2019-06-27T23:31:22.993Z,101875.00
2019-06-27T23:33:53.634Z,101871.00
2019-06-27T23:36:24.294Z,101870.00
2019-06-27T23:38:54.745Z,101874.00
2019-06-27T23:41:25.528Z,101865.00
2019-06-27T23:43:56.168Z,101869.00
2019-06-27T23:46:40.407Z,101870.00
2019-06-27T23:49:11.402Z,101870.00
2019-06-27T23:51:42.077Z,101859.00
2019-06-27T23:54:12.444Z,101870.00
2019-06-27T23:56:42.903Z,101878.00
2019-06-27T23:59:13.270Z,101862.00
